Time;durP1;ratioP1;P1;durP2;ratioP2;P2;SDS_P1;SDS_P2;PMS_P1;PMS_P2;Temp;Humidity;BMP_temperature;BMP_pressure;BME280_temperature;BME280_humidity;BME280_pressure;Samples;Min_cycle;Max_cycle;Signal;HPM_P1;HPM_P2
2023/04/16 00:02:11;;;;;;;0.20;0.20;;;;;;;9.44;100.00;99191.78;4994471;28;20373;-70
2023/04/16 00:04:39;;;;;;;0.20;0.20;;;;;;;9.43;100.00;99187.41;4993954;28;20034;-71
2023/04/16 00:07:05;;;;;;;0.20;0.20;;;;;;;9.38;100.00;99186.94;4993833;28;20034;-70
2023/04/16 00:09:30;;;;;;;0.20;0.20;;;;;;;9.33;100.00;99190.84;4994114;28;20031;-71
2023/04/16 00:11:58;;;;;;;0.20;0.20;;;;;;;9.28;100.00;99185.66;4994287;28;20022;-71
2023/04/16 00:14:24;;;;;;;0.20;0.20;;;;;;;9.29;100.00;99192.78;4994604;28;20362;-70
2023/04/16 00:16:52;;;;;;;0.20;0.20;;;;;;;9.27;100.00;99186.81;4993451;28;20120;-70
2023/04/16 00:19:17;;;;;;;0.20;0.20;;;;;;;9.28;100.00;99185.66;4994318;28;20026;-71
2023/04/16 00:21:48;;;;;;;0.20;0.20;;;;;;;9.31;100.00;99171.00;4994206;28;20133;-70
2023/04/16 00:24:13;;;;;;;0.20;0.20;;;;;;;9.36;100.00;99175.41;4993962;28;20030;-70
2023/04/16 00:26:39;;;;;;;0.20;0.20;;;;;;;9.42;100.00;99163.56;4993677;28;20034;-70
2023/04/16 00:29:08;;;;;;;0.20;0.20;;;;;;;9.42;100.00;99165.56;4993801;28;20054;-71
2023/04/16 00:31:33;;;;;;;0.30;0.30;;;;;;;9.37;100.00;99152.81;4994813;28;20030;-71
2023/04/16 00:33:59;;;;;;;0.20;0.20;;;;;;;9.42;100.00;99138.59;4994165;28;20389;-71
2023/04/16 00:36:26;;;;;;;0.20;0.20;;;;;;;9.39;100.00;99124.69;4993504;28;20082;-70
2023/04/16 00:38:52;;;;;;;0.20;0.20;;;;;;;9.36;100.00;99117.09;4993659;28;20052;-71
2023/04/16 00:41:18;;;;;;;0.20;0.20;;;;;;;9.35;100.00;99105.22;4993131;28;20119;-70
2023/04/16 00:43:44;;;;;;;0.20;0.20;;;;;;;9.27;100.00;99105.50;4993386;28;20080;-71
2023/04/16 00:46:10;;;;;;;0.20;0.20;;;;;;;9.28;100.00;99093.25;4993255;28;20037;-70
2023/04/16 00:48:40;;;;;;;0.30;0.30;;;;;;;9.17;100.00;99085.59;4993585;28;20384;-70
2023/04/16 00:51:07;;;;;;;0.20;0.20;;;;;;;9.07;100.00;99096.59;4994027;28;20031;-72
2023/04/16 00:53:33;;;;;;;0.20;0.20;;;;;;;9.25;100.00;99105.91;4996402;28;20061;-72
2023/04/16 00:56:03;;;;;;;0.20;0.20;;;;;;;9.25;100.00;99110.66;4994426;28;20037;-71
2023/04/16 00:58:29;;;;;;;0.30;0.30;;;;;;;9.20;100.00;99103.47;4993424;28;20034;-70
2023/04/16 01:00:59;;;;;;;0.20;0.20;;;;;;;9.21;100.00;99101.47;4993132;28;20048;-70
2023/04/16 01:03:50;;;;;;;0.28;0.28;;;;;;;9.05;100.00;99090.59;4993384;28;20058;-70
2023/04/16 01:06:21;;;;;;;0.20;0.20;;;;;;;9.08;100.00;99087.06;4992612;28;20034;-71
2023/04/16 01:08:49;;;;;;;0.20;0.20;;;;;;;9.02;100.00;99074.72;4993116;28;20027;-71
2023/04/16 01:11:15;;;;;;;0.20;0.20;;;;;;;9.09;100.00;99081.13;4992822;28;20030;-70
2023/04/16 01:13:41;;;;;;;0.20;0.20;;;;;;;9.12;100.00;99068.50;4992991;28;20045;-71
2023/04/16 01:16:08;;;;;;;0.20;0.20;;;;;;;9.07;100.00;99054.97;4992927;28;20034;-71
2023/04/16 01:18:37;;;;;;;0.20;0.20;;;;;;;9.12;100.00;99040.75;4993216;28;20069;-71
2023/04/16 01:21:05;;;;;;;0.20;0.20;;;;;;;9.17;100.00;99035.66;4993744;28;20428;-70
2023/04/16 01:23:31;;;;;;;0.20;0.20;;;;;;;9.21;100.00;99029.31;4992923;28;20035;-71
2023/04/16 01:25:59;;;;;;;0.20;0.20;;;;;;;9.26;100.00;99024.22;4992901;28;20076;-71
2023/04/16 01:28:24;;;;;;;0.20;0.20;;;;;;;9.37;100.00;99039.00;4994505;28;20046;-71
2023/04/16 01:30:52;;;;;;;0.20;0.20;;;;;;;9.41;100.00;99041.81;4996932;28;20029;-71
2023/04/16 01:33:20;;;;;;;0.20;0.20;;;;;;;9.44;100.00;99054.94;4997302;28;20034;-71
2023/04/16 01:35:48;;;;;;;0.20;0.20;;;;;;;9.59;100.00;99086.41;4996665;28;20038;-71
2023/04/16 01:38:13;;;;;;;0.20;0.20;;;;;;;9.63;100.00;99099.13;4997223;28;20034;-71
2023/04/16 01:40:39;;;;;;;0.20;0.20;;;;;;;9.54;100.00;99139.53;4997210;28;20380;-71
2023/04/16 01:43:07;;;;;;;0.20;0.20;;;;;;;9.34;100.00;99136.13;4996538;28;20030;-71
2023/04/16 01:45:33;;;;;;;0.20;0.20;;;;;;;9.14;100.00;99138.28;4996557;28;20022;-70
2023/04/16 01:48:02;;;;;;;0.20;0.20;;;;;;;9.14;100.00;99132.72;4996752;28;20053;-70
2023/04/16 01:50:30;;;;;;;0.20;0.20;;;;;;;9.10;100.00;99131.88;4997387;28;20026;-70
2023/04/16 01:53:00;;;;;;;0.20;0.20;;;;;;;9.17;100.00;99127.22;4996384;28;20018;-70
2023/04/16 01:55:32;;;;;;;0.20;0.20;;;;;;;9.19;100.00;99129.63;4996918;28;20034;-70
2023/04/16 01:57:57;;;;;;;0.20;0.20;;;;;;;9.25;100.00;99117.00;4996232;28;20033;-70
2023/04/16 02:00:25;;;;;;;0.20;0.20;;;;;;;9.23;100.00;99124.91;4996514;28;20121;-70
2023/04/16 02:02:50;;;;;;;0.30;0.30;;;;;;;9.16;100.00;99119.25;4996465;28;20084;-70
2023/04/16 02:05:21;;;;;;;0.20;0.20;;;;;;;9.25;100.00;99108.66;4996742;28;20473;-70
2023/04/16 02:07:46;;;;;;;0.20;0.20;;;;;;;9.25;100.00;99103.13;4996110;28;20023;-70
2023/04/16 02:10:14;;;;;;;0.20;0.20;;;;;;;9.24;100.00;99092.41;4996076;28;20037;-70
2023/04/16 02:12:43;;;;;;;0.20;0.20;;;;;;;9.21;100.00;99091.16;4997195;28;20026;-70
2023/04/16 02:15:11;;;;;;;0.20;0.20;;;;;;;9.21;100.00;99099.50;4996555;28;20034;-70
2023/04/16 02:17:39;;;;;;;0.20;0.20;;;;;;;9.33;100.00;99096.47;4995950;28;20023;-70
2023/04/16 02:20:07;;;;;;;0.20;0.20;;;;;;;9.41;100.00;99109.25;4995905;28;20130;-70
2023/04/16 02:22:32;;;;;;;0.30;0.30;;;;;;;9.28;100.00;99121.00;4996376;28;20440;-70
2023/04/16 02:25:00;;;;;;;0.20;0.20;;;;;;;9.29;100.00;99128.94;4996129;28;20069;-70
2023/04/16 02:27:25;;;;;;;0.20;0.20;;;;;;;9.10;100.00;99131.88;4995750;28;20022;-70
2023/04/16 02:29:51;;;;;;;0.30;0.30;;;;;;;9.04;100.00;99136.19;4995491;28;20065;-70
2023/04/16 02:32:21;;;;;;;0.30;0.30;;;;;;;9.00;100.00;99138.94;4995948;28;20480;-70
2023/04/16 02:34:49;;;;;;;0.20;0.20;;;;;;;8.94;100.00;99145.97;4995709;28;20469;-70
2023/04/16 02:37:15;;;;;;;0.20;0.20;;;;;;;8.96;100.00;99137.28;4995798;28;20026;-70
2023/04/16 02:39:43;;;;;;;0.20;0.20;;;;;;;8.76;100.00;99131.88;4995563;28;20053;-70
2023/04/16 02:42:09;;;;;;;0.28;0.28;;;;;;;8.64;100.00;99137.66;4995546;28;20040;-70
2023/04/16 02:44:38;;;;;;;0.20;0.20;;;;;;;8.64;100.00;99146.78;4995980;28;20038;-70
2023/04/16 02:47:06;;;;;;;0.20;0.20;;;;;;;8.50;100.00;99143.78;4995361;28;20109;-70
2023/04/16 02:49:31;;;;;;;0.20;0.20;;;;;;;8.52;100.00;99143.41;4995391;28;20038;-70
2023/04/16 02:51:57;;;;;;;0.20;0.20;;;;;;;8.49;100.00;99146.94;4995525;28;20030;-70
2023/04/16 02:54:25;;;;;;;0.20;0.20;;;;;;;8.33;100.00;99147.06;4995780;28;20362;-70
2023/04/16 02:56:53;;;;;;;0.30;0.30;;;;;;;8.24;100.00;99161.19;4995241;28;20121;-70
2023/04/16 02:59:21;;;;;;;0.30;0.30;;;;;;;8.15;100.00;99157.88;4995178;28;20034;-70
2023/04/16 03:01:49;;;;;;;0.30;0.30;;;;;;;8.03;100.00;99147.78;4995147;28;20054;-70
2023/04/16 03:04:17;;;;;;;0.20;0.20;;;;;;;7.95;100.00;99154.38;4995079;28;20044;-70
2023/04/16 03:06:45;;;;;;;0.20;0.20;;;;;;;7.98;100.00;99155.59;4996314;28;20041;-70
2023/04/16 03:09:11;;;;;;;0.20;0.20;;;;;;;7.96;100.00;99157.94;4995864;28;20032;-70
2023/04/16 03:11:39;;;;;;;0.30;0.30;;;;;;;8.00;100.00;99142.19;4995150;28;20026;-70
2023/04/16 03:14:06;;;;;;;0.20;0.20;;;;;;;7.99;100.00;99143.34;4994854;28;20045;-70
2023/04/16 03:16:32;;;;;;;0.20;0.20;;;;;;;8.03;100.00;99136.69;4994936;28;20042;-70
2023/04/16 03:19:00;;;;;;;0.20;0.20;;;;;;;8.00;100.00;99131.91;4996073;28;20026;-70
2023/04/16 03:21:28;;;;;;;0.20;0.20;;;;;;;8.02;100.00;99129.56;4998098;28;20161;-71
2023/04/16 03:23:56;;;;;;;0.30;0.30;;;;;;;8.00;100.00;99133.88;4996390;28;20061;-70
2023/04/16 03:26:22;;;;;;;0.20;0.20;;;;;;;7.98;100.00;99122.38;4995367;28;20493;-70
2023/04/16 03:28:49;;;;;;;0.20;0.20;;;;;;;8.04;100.00;99131.94;4994736;28;20133;-70
2023/04/16 03:31:20;;;;;;;0.20;0.20;;;;;;;7.99;100.00;99126.72;4995870;28;20030;-70
2023/04/16 03:33:48;;;;;;;0.30;0.30;;;;;;;8.11;100.00;99126.53;4995801;28;20053;-70
2023/04/16 03:36:14;;;;;;;0.28;0.28;;;;;;;8.02;100.00;99121.25;4995436;28;20023;-70
2023/04/16 03:38:42;;;;;;;0.30;0.30;;;;;;;8.01;100.00;99110.56;4994448;28;20030;-70
2023/04/16 03:41:10;;;;;;;0.30;0.30;;;;;;;8.08;100.00;99110.66;4994349;28;20033;-70
2023/04/16 03:43:37;;;;;;;0.20;0.20;;;;;;;8.12;100.00;99094.88;4994342;28;20163;-69
2023/04/16 03:46:03;;;;;;;0.20;0.20;;;;;;;8.07;100.00;99093.22;4994553;28;20462;-69
2023/04/16 03:48:34;;;;;;;0.20;0.20;;;;;;;8.06;100.00;99101.94;4994978;28;20116;-69
2023/04/16 03:50:59;;;;;;;0.20;0.20;;;;;;;8.13;100.00;99096.47;4993816;28;20105;-69
2023/04/16 03:53:25;;;;;;;0.20;0.20;;;;;;;8.23;100.00;99101.38;4993941;28;20122;-69
2023/04/16 03:55:51;;;;;;;0.20;0.20;;;;;;;8.21;100.00;99092.66;4994896;28;20034;-69
2023/04/16 03:58:17;;;;;;;0.30;0.30;;;;;;;8.23;100.00;99086.75;4995299;28;20026;-69
2023/04/16 04:00:43;;;;;;;0.20;0.20;;;;;;;8.28;100.00;99092.75;4993965;28;20026;-69
2023/04/16 04:03:11;;;;;;;0.30;0.30;;;;;;;8.26;100.00;99092.34;4993926;28;20096;-69
2023/04/16 04:05:41;;;;;;;0.20;0.20;;;;;;;8.19;100.00;99095.00;4994844;28;20033;-70
2023/04/16 04:08:07;;;;;;;0.20;0.20;;;;;;;8.16;100.00;99095.75;4995313;28;20034;-70
2023/04/16 04:10:35;;;;;;;0.20;0.20;;;;;;;8.16;100.00;99106.84;4994706;28;20058;-69
2023/04/16 04:13:03;;;;;;;0.20;0.20;;;;;;;8.16;100.00;99117.91;4994372;28;20113;-69
2023/04/16 04:15:34;;;;;;;0.20;0.20;;;;;;;8.21;100.00;99114.03;4994068;28;20108;-69
2023/04/16 04:17:59;;;;;;;0.30;0.30;;;;;;;8.20;100.00;99123.50;4993991;28;20121;-69
2023/04/16 04:20:25;;;;;;;0.20;0.20;;;;;;;8.36;100.00;99121.38;4994031;28;20054;-70
2023/04/16 04:22:50;;;;;;;0.20;0.20;;;;;;;8.26;100.00;99128.38;4993688;28;20508;-69
2023/04/16 04:25:16;;;;;;;0.25;0.25;;;;;;;8.24;100.00;99133.47;4993920;28;20093;-70
2023/04/16 04:27:42;;;;;;;0.20;0.20;;;;;;;8.21;100.00;99125.91;4993658;28;20472;-70
2023/04/16 04:30:11;;;;;;;0.22;0.22;;;;;;;8.28;100.00;99136.31;4993394;28;20046;-70
2023/04/16 04:32:39;;;;;;;0.20;0.20;;;;;;;8.24;100.00;99136.25;4994821;28;20093;-70
2023/04/16 04:35:08;;;;;;;0.20;0.20;;;;;;;8.26;100.00;99128.38;4993544;28;20117;-70
2023/04/16 04:37:34;;;;;;;0.20;0.20;;;;;;;8.12;100.00;99106.78;4993490;28;20041;-70
2023/04/16 04:40:07;;;;;;;0.20;0.20;;;;;;;8.24;100.00;99122.38;4993780;28;20038;-70
2023/04/16 04:42:36;;;;;;;0.20;0.20;;;;;;;8.27;100.00;99129.16;4993666;28;20049;-70
2023/04/16 04:45:02;;;;;;;0.20;0.20;;;;;;;8.23;100.00;99137.41;4994378;28;20030;-70
2023/04/16 04:47:27;;;;;;;0.20;0.20;;;;;;;8.21;100.00;99147.28;4993621;28;20461;-70
2023/04/16 04:49:57;;;;;;;0.20;0.20;;;;;;;8.15;100.00;99132.94;4993310;28;20041;-70
2023/04/16 04:52:23;;;;;;;0.20;0.20;;;;;;;8.20;100.00;99140.13;4993178;28;20022;-70
2023/04/16 04:54:48;;;;;;;0.20;0.20;;;;;;;8.25;100.00;99140.59;4993229;28;20045;-70
2023/04/16 04:57:16;;;;;;;0.25;0.25;;;;;;;8.24;100.00;99130.69;4993171;28;20022;-70
2023/04/16 04:59:44;;;;;;;0.20;0.20;;;;;;;8.26;100.00;99116.50;4993787;28;20030;-70
2023/04/16 05:02:10;;;;;;;0.20;0.20;;;;;;;8.25;100.00;99126.75;4992995;28;20027;-70
2023/04/16 05:04:36;;;;;;;0.20;0.20;;;;;;;8.40;100.00;99134.13;4993146;28;20029;-70
2023/04/16 05:07:01;;;;;;;0.20;0.20;;;;;;;8.51;100.00;99141.81;4993073;28;20026;-70
2023/04/16 05:09:27;;;;;;;0.20;0.20;;;;;;;8.44;100.00;99138.94;4992612;28;20077;-70
2023/04/16 05:11:53;;;;;;;0.20;0.20;;;;;;;8.50;100.00;99132.69;4993225;28;20030;-70
2023/04/16 05:14:23;;;;;;;0.20;0.20;;;;;;;8.49;100.00;99138.63;4993061;28;20030;-70
2023/04/16 05:16:49;;;;;;;0.20;0.20;;;;;;;8.46;100.00;99136.59;4993813;28;20034;-70
2023/04/16 05:19:15;;;;;;;0.22;0.22;;;;;;;8.50;100.00;99138.25;4993032;28;20113;-70
2023/04/16 05:21:41;;;;;;;0.22;0.22;;;;;;;8.35;100.00;99145.50;4993487;28;20034;-70
2023/04/16 05:24:11;;;;;;;0.20;0.20;;;;;;;8.39;100.00;99151.94;4992959;28;20470;-69
2023/04/16 05:26:39;;;;;;;0.20;0.20;;;;;;;8.18;100.00;99150.78;4992979;28;20481;-70
2023/04/16 05:29:10;;;;;;;0.20;0.20;;;;;;;8.17;100.00;99163.84;5002865;28;20053;-70
2023/04/16 05:31:38;;;;;;;0.20;0.20;;;;;;;8.21;100.00;99170.25;4995995;28;20030;-70
2023/04/16 05:34:08;;;;;;;0.20;0.20;;;;;;;8.11;100.00;99159.78;4996883;28;20342;-70
2023/04/16 05:36:34;;;;;;;0.20;0.20;;;;;;;8.17;100.00;99163.06;4996060;28;20038;-69
2023/04/16 05:38:59;;;;;;;0.20;0.20;;;;;;;8.15;100.00;99171.75;4996066;28;20036;-70
2023/04/16 05:41:26;;;;;;;0.20;0.20;;;;;;;8.17;100.00;99163.84;4996357;28;20030;-70
2023/04/16 05:43:54;;;;;;;0.20;0.20;;;;;;;8.23;100.00;99170.66;4995998;28;20113;-70
2023/04/16 05:46:22;;;;;;;0.20;0.20;;;;;;;8.20;100.00;99163.09;4996659;28;20373;-70
2023/04/16 05:48:48;;;;;;;0.20;0.20;;;;;;;8.22;100.00;99154.41;4996132;28;20038;-70
2023/04/16 05:51:21;;;;;;;0.28;0.28;;;;;;;8.26;100.00;99156.09;4997214;28;20026;-70
2023/04/16 05:53:49;;;;;;;0.20;0.20;;;;;;;8.34;100.00;99168.88;4997431;28;20084;-70
2023/04/16 05:56:18;;;;;;;0.20;0.20;;;;;;;8.38;100.00;99164.22;4997832;28;20052;-71
2023/04/16 05:58:49;;;;;;;0.25;0.25;;;;;;;8.38;100.00;99164.22;4997112;28;20030;-70
2023/04/16 06:01:17;;;;;;;0.20;0.20;;;;;;;8.41;100.00;99151.56;4997649;28;20017;-70
2023/04/16 06:03:43;;;;;;;0.30;0.30;;;;;;;8.43;100.00;99170.63;4996393;28;20125;-70
2023/04/16 06:06:09;;;;;;;0.20;0.20;;;;;;;8.48;100.00;99161.97;4996383;28;20030;-70
2023/04/16 06:08:37;;;;;;;0.20;0.20;;;;;;;8.51;100.00;99172.31;4996068;28;20072;-70
2023/04/16 06:11:05;;;;;;;0.25;0.25;;;;;;;8.56;100.00;99180.31;5013848;28;20049;-70
2023/04/16 06:13:34;;;;;;;0.20;0.20;;;;;;;8.57;100.00;99176.34;4995780;28;20038;-70
2023/04/16 06:16:04;;;;;;;0.20;0.20;;;;;;;8.63;100.00;99166.56;4999082;28;20060;-70
2023/04/16 06:18:30;;;;;;;0.28;0.28;;;;;;;8.65;100.00;99155.88;5017070;28;20034;-70
2023/04/16 06:20:58;;;;;;;0.20;0.20;;;;;;;8.64;100.00;99157.88;4999462;28;20164;-70
2023/04/16 06:23:24;;;;;;;0.20;0.20;;;;;;;8.73;100.00;99157.56;4999121;28;20038;-70
2023/04/16 06:25:51;;;;;;;0.20;0.20;;;;;;;8.73;100.00;99143.69;4999229;28;20105;-70
2023/04/16 06:28:20;;;;;;;0.20;0.20;;;;;;;8.78;100.00;99154.47;4999158;28;20033;-70
2023/04/16 06:30:49;;;;;;;0.20;0.20;;;;;;;8.80;100.00;99154.91;5000138;28;20120;-70
2023/04/16 06:33:16;;;;;;;0.20;0.20;;;;;;;8.83;100.00;99156.91;5000415;28;20026;-70
2023/04/16 06:35:44;;;;;;;0.20;0.20;;;;;;;8.81;100.00;99159.28;4999806;28;20124;-70
2023/04/16 06:38:10;;;;;;;0.20;0.20;;;;;;;8.94;100.00;99157.06;4999294;28;20464;-70
2023/04/16 06:40:41;;;;;;;0.20;0.20;;;;;;;9.00;100.00;99140.88;4998800;28;20124;-68
2023/04/16 06:43:07;;;;;;;0.20;0.20;;;;;;;9.08;100.00;99142.56;4999055;28;20030;-69
2023/04/16 06:45:35;;;;;;;0.20;0.20;;;;;;;9.19;100.00;99140.72;4998954;28;20500;-69
2023/04/16 06:48:03;;;;;;;0.20;0.20;;;;;;;9.39;100.00;99133.81;4998653;28;20224;-69
2023/04/16 06:50:32;;;;;;;0.20;0.20;;;;;;;9.54;100.00;99140.31;4998588;28;20030;-69
2023/04/16 06:53:00;;;;;;;0.20;0.20;;;;;;;9.60;100.00;99124.13;5016104;28;20037;-69
2023/04/16 06:55:30;;;;;;;0.20;0.20;;;;;;;9.72;100.00;99129.38;4999048;28;20474;-69
2023/04/16 06:57:56;;;;;;;0.30;0.30;;;;;;;9.88;100.00;99115.22;4998690;28;20432;-69
2023/04/16 07:00:24;;;;;;;0.30;0.30;;;;;;;9.91;100.00;99118.06;4998503;28;20119;-69
2023/04/16 07:02:49;;;;;;;0.20;0.20;;;;;;;9.95;100.00;99107.75;4998690;28;20053;-69
2023/04/16 07:05:15;;;;;;;0.20;0.20;;;;;;;10.08;100.00;99104.69;4998660;28;20523;-69
2023/04/16 07:07:40;;;;;;;0.20;0.20;;;;;;;9.96;100.00;99109.38;4998288;28;20025;-69
2023/04/16 07:10:09;;;;;;;0.20;0.20;;;;;;;9.91;100.00;99104.16;4998289;28;20113;-69
2023/04/16 07:12:37;;;;;;;0.20;0.20;;;;;;;10.07;100.00;99101.09;4998101;28;20472;-69
2023/04/16 07:15:15;;;;;;;0.20;0.20;;;;;;;10.08;100.00;99102.69;4998906;28;20436;-70
2023/04/16 07:17:40;;;;;;;0.20;0.20;;;;;;;10.19;100.00;99103.56;4998130;28;20034;-69
2023/04/16 07:20:09;;;;;;;0.20;0.20;;;;;;;10.25;100.00;99106.81;4998014;28;20041;-69
2023/04/16 07:22:37;;;;;;;0.20;0.20;;;;;;;10.28;100.00;99100.50;4998029;28;20038;-69
2023/04/16 07:25:07;;;;;;;0.20;0.20;;;;;;;10.50;100.00;99101.41;4998764;28;20040;-69
2023/04/16 07:27:32;;;;;;;0.20;0.20;;;;;;;10.49;100.00;99102.59;4997749;28;20034;-69
2023/04/16 07:29:58;;;;;;;0.20;0.20;;;;;;;10.47;100.00;99114.09;4994211;28;20101;-70
2023/04/16 07:32:24;;;;;;;0.20;0.20;;;;;;;10.22;100.00;99104.75;4994745;28;20030;-69
2023/04/16 07:34:49;;;;;;;0.20;0.20;;;;;;;10.27;100.00;99109.19;4995114;28;20105;-69
2023/04/16 07:37:17;;;;;;;0.25;0.25;;;;;;;10.40;100.00;99111.28;4994738;28;20470;-69
2023/04/16 07:39:46;;;;;;;0.20;0.20;;;;;;;10.41;100.00;99115.66;4994672;28;20049;-69
2023/04/16 07:42:14;;;;;;;0.20;0.20;;;;;;;10.56;100.00;99124.09;4995655;28;20072;-69
2023/04/16 07:44:45;;;;;;;0.20;0.20;;;;;;;10.41;100.00;99126.00;4994992;28;20486;-70
2023/04/16 07:47:15;;;;;;;0.20;0.20;;;;;;;10.33;100.00;99118.75;4994636;28;20026;-69
2023/04/16 07:49:43;;;;;;;0.20;0.20;;;;;;;10.35;99.98;99130.31;4994809;28;20342;-69
2023/04/16 07:52:09;;;;;;;0.20;0.20;;;;;;;10.32;100.00;99123.53;4994147;28;20081;-69
2023/04/16 07:54:35;;;;;;;0.20;0.20;;;;;;;10.38;99.75;99133.09;4995063;28;20030;-69
2023/04/16 07:57:03;;;;;;;0.20;0.20;;;;;;;10.32;99.74;99131.88;4994712;28;20496;-69
2023/04/16 07:59:29;;;;;;;0.22;0.22;;;;;;;10.21;99.67;99125.41;4994826;28;20076;-69
2023/04/16 08:01:54;;;;;;;0.20;0.20;;;;;;;10.19;100.00;99130.56;4994048;28;20457;-69
2023/04/16 08:04:26;;;;;;;0.20;0.20;;;;;;;9.83;100.00;99146.94;4994603;28;20150;-69
2023/04/16 08:06:53;;;;;;;0.20;0.20;;;;;;;9.80;100.00;99147.72;4994470;28;20022;-69
2023/04/16 08:09:22;;;;;;;0.20;0.20;;;;;;;9.86;100.00;99146.19;4994468;28;20123;-69
2023/04/16 08:11:48;;;;;;;0.30;0.30;;;;;;;9.83;100.00;99143.38;4994125;28;20030;-69
2023/04/16 08:14:15;;;;;;;0.20;0.20;;;;;;;9.87;100.00;99149.75;4994963;28;20022;-70
2023/04/16 08:16:41;;;;;;;0.20;0.20;;;;;;;10.01;100.00;99151.84;4997322;28;20022;-70
2023/04/16 08:19:07;;;;;;;0.20;0.20;;;;;;;9.70;100.00;99151.19;4995438;28;20401;-69
2023/04/16 08:21:35;;;;;;;0.20;0.20;;;;;;;9.82;100.00;99155.66;4993700;28;20026;-69
2023/04/16 08:24:04;;;;;;;0.20;0.20;;;;;;;9.79;100.00;99145.31;4994375;28;20034;-69
2023/04/16 08:26:32;;;;;;;0.20;0.20;;;;;;;9.91;100.00;99154.16;4993644;28;20026;-69
2023/04/16 08:29:04;;;;;;;0.20;0.20;;;;;;;9.95;100.00;99149.41;4993495;28;20054;-68
2023/04/16 08:31:33;;;;;;;0.20;0.20;;;;;;;10.15;100.00;99157.53;4993404;28;20069;-69
2023/04/16 08:34:01;;;;;;;0.20;0.20;;;;;;;10.14;100.00;99147.59;4993871;28;20034;-69
2023/04/16 08:36:29;;;;;;;0.20;0.20;;;;;;;10.27;100.00;99160.03;4995018;28;20058;-69
2023/04/16 08:38:54;;;;;;;0.20;0.20;;;;;;;10.39;100.00;99151.41;4993200;28;20473;-69
2023/04/16 08:41:25;;;;;;;0.20;0.20;;;;;;;10.47;100.00;99146.69;4993413;28;20077;-68
2023/04/16 08:43:56;;;;;;;0.20;0.20;;;;;;;10.44;100.00;99153.03;4993895;28;20026;-69
2023/04/16 08:46:26;;;;;;;0.20;0.20;;;;;;;10.44;100.00;99153.84;4993346;28;20030;-70
2023/04/16 08:48:57;;;;;;;0.20;0.20;;;;;;;10.57;100.00;99156.28;4994281;28;20038;-69
2023/04/16 08:51:28;;;;;;;0.20;0.20;;;;;;;10.33;100.00;99164.06;4993440;28;20392;-69
2023/04/16 08:54:07;;;;;;;0.20;0.20;;;;;;;10.56;100.00;99163.03;4993265;28;20030;-69
2023/04/16 08:56:35;;;;;;;0.28;0.28;;;;;;;10.58;100.00;99169.00;4993182;28;20022;-69
2023/04/16 08:59:07;;;;;;;0.20;0.20;;;;;;;10.55;98.30;99167.00;4993704;28;20080;-69
2023/04/16 09:01:34;;;;;;;0.20;0.20;;;;;;;10.78;98.40;99173.09;4994681;28;20065;-69
2023/04/16 09:04:06;;;;;;;0.20;0.20;;;;;;;11.04;100.00;99169.28;4993121;28;20037;-69
2023/04/16 09:06:35;;;;;;;0.20;0.20;;;;;;;10.87;93.54;99165.22;4993686;28;20191;-69
2023/04/16 09:09:03;;;;;;;0.20;0.20;;;;;;;10.92;94.39;99161.25;4993597;28;20030;-69
2023/04/16 09:11:29;;;;;;;0.20;0.20;;;;;;;11.24;97.23;99172.53;4993264;28;20424;-71
2023/04/16 09:13:56;;;;;;;0.20;0.20;;;;;;;11.21;93.57;99176.09;4993337;28;20132;-69
2023/04/16 09:16:23;;;;;;;0.20;0.20;;;;;;;11.40;91.29;99169.38;4993246;28;20026;-69
2023/04/16 09:18:50;;;;;;;0.20;0.20;;;;;;;11.58;90.79;99169.47;4993027;28;20030;-69
2023/04/16 09:21:20;;;;;;;0.20;0.20;;;;;;;11.77;90.45;99171.88;4993032;28;20054;-69
2023/04/16 09:23:46;;;;;;;0.20;0.20;;;;;;;11.84;90.05;99168.34;4993221;28;20034;-70
2023/04/16 09:26:15;;;;;;;0.20;0.20;;;;;;;11.89;90.32;99165.97;4993570;28;20035;-70
2023/04/16 09:28:45;;;;;;;0.20;0.20;;;;;;;11.89;88.29;99179.91;4992754;28;20053;-69
2023/04/16 09:31:18;;;;;;;0.20;0.20;;;;;;;12.07;88.34;99169.56;4992561;28;20105;-69
2023/04/16 09:34:06;;;;;;;0.20;0.20;;;;;;;12.12;86.36;99175.94;4993754;28;20039;-70
2023/04/16 09:36:33;;;;;;;0.20;0.20;;;;;;;12.23;84.90;99177.53;4992728;28;20104;-69
2023/04/16 09:38:59;;;;;;;0.20;0.20;;;;;;;11.86;86.10;99177.91;4993630;28;20034;-69
2023/04/16 09:41:34;;;;;;;0.20;0.20;;;;;;;11.48;87.42;99176.59;4993052;28;20376;-70
2023/04/16 09:44:04;;;;;;;0.22;0.22;;;;;;;11.51;88.47;99171.03;4993804;28;20041;-70
2023/04/16 09:46:36;;;;;;;0.30;0.30;;;;;;;11.62;89.84;99185.00;4994344;28;20030;-70
2023/04/16 09:49:14;;;;;;;0.20;0.20;;;;;;;11.25;91.11;99186.06;4994060;28;20105;-70
2023/04/16 09:51:41;;;;;;;0.20;0.20;;;;;;;11.49;91.45;99190.13;4996563;28;20057;-70
2023/04/16 09:54:10;;;;;;;0.20;0.20;;;;;;;11.45;90.93;99180.97;4997234;28;20089;-70
2023/04/16 09:56:44;;;;;;;0.20;0.20;;;;;;;11.47;90.60;99183.38;4996329;28;20038;-70
2023/04/16 09:59:21;;;;;;;0.20;0.20;;;;;;;11.55;91.83;99188.53;4996841;28;20502;-70
2023/04/16 10:01:51;;;;;;;0.20;0.20;;;;;;;11.58;92.62;99186.19;4996262;28;20496;-70
2023/04/16 10:04:17;;;;;;;0.20;0.20;;;;;;;11.67;91.75;99192.19;4996194;28;20027;-70
2023/04/16 10:07:02;;;;;;;0.20;0.20;;;;;;;11.65;91.90;99186.19;4996413;28;20026;-70
2023/04/16 10:09:31;;;;;;;0.20;0.20;;;;;;;11.72;95.79;99186.22;4996466;28;20042;-70
2023/04/16 10:11:59;;;;;;;0.20;0.20;;;;;;;11.81;94.16;99197.78;4996604;28;20061;-70
2023/04/16 10:14:27;;;;;;;0.20;0.20;;;;;;;11.83;91.90;99195.44;4996271;28;20121;-70
2023/04/16 10:16:57;;;;;;;0.20;0.20;;;;;;;11.82;91.49;99190.22;4995937;28;20053;-70
2023/04/16 10:19:24;;;;;;;0.20;0.20;;;;;;;11.92;93.75;99204.19;4997199;28;20465;-70
2023/04/16 10:21:50;;;;;;;0.20;0.20;;;;;;;11.88;94.20;99167.19;4996145;28;20116;-70
2023/04/16 10:24:17;;;;;;;0.20;0.20;;;;;;;12.18;94.28;99191.09;4995860;28;20553;-70
2023/04/16 10:26:46;;;;;;;0.20;0.20;;;;;;;12.30;94.23;99196.25;4996092;28;20384;-70
2023/04/16 10:29:12;;;;;;;0.20;0.20;;;;;;;12.27;93.23;99192.28;4995653;28;20226;-70
2023/04/16 10:31:41;;;;;;;0.20;0.20;;;;;;;12.35;93.24;99184.69;4995646;28;20038;-70
2023/04/16 10:34:08;;;;;;;0.20;0.20;;;;;;;12.29;90.75;99197.47;4996211;28;20035;-70
2023/04/16 10:36:38;;;;;;;0.20;0.20;;;;;;;12.22;92.23;99172.38;4996742;28;20033;-69
2023/04/16 10:39:14;;;;;;;0.20;0.20;;;;;;;12.37;93.24;99190.69;4997423;28;20062;-70
2023/04/16 10:41:41;;;;;;;0.20;0.20;;;;;;;12.20;92.75;99161.63;4995992;28;20117;-73
2023/04/16 10:44:09;;;;;;;0.20;0.20;;;;;;;12.36;92.29;99185.50;4997884;28;20034;-70
2023/04/16 10:46:40;;;;;;;0.20;0.20;;;;;;;12.42;92.12;99184.72;4996820;28;20469;-70
2023/04/16 10:49:14;;;;;;;0.20;0.20;;;;;;;12.27;90.45;99186.72;4995433;28;20026;-69
2023/04/16 10:51:42;;;;;;;0.20;0.20;;;;;;;11.99;92.90;99190.28;4995334;28;20030;-69
2023/04/16 10:54:08;;;;;;;0.20;0.20;;;;;;;11.95;94.89;99167.16;4995305;28;20034;-69
2023/04/16 10:56:35;;;;;;;0.20;0.20;;;;;;;11.96;90.00;99184.69;4995781;28;20053;-69
2023/04/16 10:59:06;;;;;;;0.20;0.20;;;;;;;11.88;88.31;99186.69;4996033;28;20354;-69
2023/04/16 11:01:41;;;;;;;0.20;0.20;;;;;;;11.54;90.87;99186.16;4994719;28;20041;-69
2023/04/16 11:07:19;;;;;;;0.20;0.20;;;;;;;11.52;93.36;99180.19;4996345;28;20613;-69
2023/04/16 11:09:58;;;;;;;0.30;0.30;;;;;;;11.60;92.56;99178.22;4995007;28;20030;-69
2023/04/16 11:12:45;;;;;;;0.20;0.20;;;;;;;11.62;93.66;99182.22;4995152;28;20030;-69
2023/04/16 11:15:15;;;;;;;0.30;0.30;;;;;;;11.80;92.59;99183.03;4995550;28;20073;-69
2023/04/16 11:17:51;;;;;;;0.20;0.20;;;;;;;11.83;91.99;99180.69;4994829;28;20030;-69
2023/04/16 11:20:23;;;;;;;0.30;0.30;;;;;;;11.75;90.00;99179.84;4994869;28;20113;-69
2023/04/16 11:22:49;;;;;;;0.20;0.20;;;;;;;11.86;90.73;99177.91;4995078;28;20180;-69
2023/04/16 11:25:29;;;;;;;0.20;0.20;;;;;;;11.80;89.43;99183.03;4996230;28;20093;-69
2023/04/16 11:27:57;;;;;;;0.20;0.20;;;;;;;11.76;91.79;99181.44;4994651;28;20018;-69
2023/04/16 11:30:32;;;;;;;0.20;0.20;;;;;;;11.77;90.81;99183.03;4994133;28;20489;-69
2023/04/16 11:33:00;;;;;;;0.22;0.22;;;;;;;11.51;91.54;99193.34;4994829;28;20018;-68
2023/04/16 11:35:26;;;;;;;0.20;0.20;;;;;;;11.14;97.31;99188.00;4994553;28;20041;-68
2023/04/16 11:37:56;;;;;;;0.20;0.20;;;;;;;11.13;97.75;99193.94;4994817;28;20046;-69
2023/04/16 11:40:22;;;;;;;0.20;0.20;;;;;;;10.95;99.93;99203.00;4994446;28;20069;-69